sensor_id;sensor_type;location;lat;lon;timestamp;P1;durP1;ratioP1;P2;durP2;ratioP2
51660;SDS011;37741;49.748;8.490;2022-11-04T00:02:04;8.15;;;3.40;;
51660;SDS011;37741;49.748;8.490;2022-11-04T00:07:58;6.72;;;3.40;;
51660;SDS011;37741;49.748;8.490;2022-11-04T00:24:16;8.05;;;3.45;;
51660;SDS011;37741;49.748;8.490;2022-11-04T00:30:40;5.90;;;2.88;;
51660;SDS011;37741;49.748;8.490;2022-11-04T00:33:06;5.90;;;2.63;;
51660;SDS011;37741;49.748;8.490;2022-11-04T00:42:19;11.05;;;3.00;;
51660;SDS011;37741;49.748;8.490;2022-11-04T00:48:11;7.18;;;2.53;;
51660;SDS011;37741;49.748;8.490;2022-11-04T00:50:37;7.07;;;1.92;;
51660;SDS011;37741;49.748;8.490;2022-11-04T00:53:03;3.72;;;1.73;;
51660;SDS011;37741;49.748;8.490;2022-11-04T00:55:29;6.57;;;2.20;;
51660;SDS011;37741;49.748;8.490;2022-11-04T01:04:43;3.33;;;1.75;;
51660;SDS011;37741;49.748;8.490;2022-11-04T01:07:10;3.47;;;1.70;;
51660;SDS011;37741;49.748;8.490;2022-11-04T01:09:36;2.67;;;1.42;;
51660;SDS011;37741;49.748;8.490;2022-11-04T01:12:02;4.97;;;1.50;;
51660;SDS011;37741;49.748;8.490;2022-11-04T01:14:27;7.22;;;2.30;;
51660;SDS011;37741;49.748;8.490;2022-11-04T01:23:34;2.75;;;1.25;;
51660;SDS011;37741;49.748;8.490;2022-11-04T01:29:40;2.67;;;1.27;;
51660;SDS011;37741;49.748;8.490;2022-11-04T01:41:48;2.05;;;1.08;;
51660;SDS011;37741;49.748;8.490;2022-11-04T01:47:11;5.78;;;2.58;;
51660;SDS011;37741;49.748;8.490;2022-11-04T01:49:41;3.35;;;1.33;;
51660;SDS011;37741;49.748;8.490;2022-11-04T01:52:09;2.30;;;1.15;;
51660;SDS011;37741;49.748;8.490;2022-11-04T01:58:31;4.93;;;1.20;;
51660;SDS011;37741;49.748;8.490;2022-11-04T02:04:21;4.50;;;1.35;;
51660;SDS011;37741;49.748;8.490;2022-11-04T02:06:49;2.03;;;1.02;;
51660;SDS011;37741;49.748;8.490;2022-11-04T02:09:21;2.25;;;1.00;;
51660;SDS011;37741;49.748;8.490;2022-11-04T02:11:48;1.90;;;1.08;;
51660;SDS011;37741;49.748;8.490;2022-11-04T02:14:33;2.10;;;1.15;;
51660;SDS011;37741;49.748;8.490;2022-11-04T03:10:15;1.45;;;0.77;;
51660;SDS011;37741;49.748;8.490;2022-11-04T03:53:03;2.22;;;0.80;;
51660;SDS011;37741;49.748;8.490;2022-11-04T03:59:16;2.63;;;1.08;;
51660;SDS011;37741;49.748;8.490;2022-11-04T05:12:43;3.30;;;0.90;;
51660;SDS011;37741;49.748;8.490;2022-11-04T05:22:12;2.45;;;1.00;;
51660;SDS011;37741;49.748;8.490;2022-11-04T05:34:18;4.43;;;1.42;;
51660;SDS011;37741;49.748;8.490;2022-11-04T05:36:44;1.92;;;0.90;;
51660;SDS011;37741;49.748;8.490;2022-11-04T05:39:10;2.45;;;0.82;;
51660;SDS011;37741;49.748;8.490;2022-11-04T05:41:37;2.65;;;0.90;;
51660;SDS011;37741;49.748;8.490;2022-11-04T05:44:03;2.67;;;0.90;;
51660;SDS011;37741;49.748;8.490;2022-11-04T05:46:29;3.67;;;1.13;;
51660;SDS011;37741;49.748;8.490;2022-11-04T05:48:55;2.53;;;0.85;;
51660;SDS011;37741;49.748;8.490;2022-11-04T05:51:22;3.80;;;1.00;;
51660;SDS011;37741;49.748;8.490;2022-11-04T05:53:50;3.47;;;1.27;;
51660;SDS011;37741;49.748;8.490;2022-11-04T05:56:15;4.55;;;1.13;;
51660;SDS011;37741;49.748;8.490;2022-11-04T05:58:41;2.75;;;0.98;;
51660;SDS011;37741;49.748;8.490;2022-11-04T06:03:47;4.07;;;1.10;;
51660;SDS011;37741;49.748;8.490;2022-11-04T06:06:13;2.90;;;1.20;;
51660;SDS011;37741;49.748;8.490;2022-11-04T06:08:39;4.18;;;1.25;;
51660;SDS011;37741;49.748;8.490;2022-11-04T06:11:04;3.78;;;1.23;;
51660;SDS011;37741;49.748;8.490;2022-11-04T06:13:30;3.22;;;1.02;;
51660;SDS011;37741;49.748;8.490;2022-11-04T06:36:37;3.40;;;0.95;;
51660;SDS011;37741;49.748;8.490;2022-11-04T07:37:07;3.05;;;1.38;;
51660;SDS011;37741;49.748;8.490;2022-11-04T10:34:52;2.53;;;1.35;;
51660;SDS011;37741;49.748;8.490;2022-11-04T11:52:44;3.03;;;1.25;;
51660;SDS011;37741;49.748;8.490;2022-11-04T11:55:30;6.78;;;1.30;;
51660;SDS011;37741;49.748;8.490;2022-11-04T12:28:46;3.47;;;1.25;;
51660;SDS011;37741;49.748;8.490;2022-11-04T12:34:33;2.45;;;1.20;;
51660;SDS011;37741;49.748;8.490;2022-11-04T12:37:46;3.47;;;1.73;;
51660;SDS011;37741;49.748;8.490;2022-11-04T12:40:42;2.53;;;1.20;;
51660;SDS011;37741;49.748;8.490;2022-11-04T12:43:35;2.80;;;1.40;;
51660;SDS011;37741;49.748;8.490;2022-11-04T12:56:16;4.45;;;1.40;;
51660;SDS011;37741;49.748;8.490;2022-11-04T12:58:51;8.23;;;1.98;;
51660;SDS011;37741;49.748;8.490;2022-11-04T13:04:22;3.35;;;1.38;;
51660;SDS011;37741;49.748;8.490;2022-11-04T13:07:23;3.03;;;1.20;;
51660;SDS011;37741;49.748;8.490;2022-11-04T13:10:06;3.75;;;1.25;;
51660;SDS011;37741;49.748;8.490;2022-11-04T13:12:44;3.78;;;1.23;;
51660;SDS011;37741;49.748;8.490;2022-11-04T13:15:17;3.95;;;1.05;;
51660;SDS011;37741;49.748;8.490;2022-11-04T13:17:48;3.03;;;1.13;;
51660;SDS011;37741;49.748;8.490;2022-11-04T13:22:50;5.03;;;1.15;;
51660;SDS011;37741;49.748;8.490;2022-11-04T13:25:23;2.70;;;1.20;;
51660;SDS011;37741;49.748;8.490;2022-11-04T13:27:55;2.85;;;1.17;;
51660;SDS011;37741;49.748;8.490;2022-11-04T13:30:45;2.00;;;0.80;;
51660;SDS011;37741;49.748;8.490;2022-11-04T13:39:06;3.58;;;1.05;;
51660;SDS011;37741;49.748;8.490;2022-11-04T13:42:01;1.85;;;1.00;;
51660;SDS011;37741;49.748;8.490;2022-11-04T13:44:44;2.58;;;1.00;;
51660;SDS011;37741;49.748;8.490;2022-11-04T13:47:19;2.78;;;1.30;;
51660;SDS011;37741;49.748;8.490;2022-11-04T13:49:51;3.63;;;1.52;;
51660;SDS011;37741;49.748;8.490;2022-11-04T13:52:24;4.65;;;1.45;;
51660;SDS011;37741;49.748;8.490;2022-11-04T13:58:23;2.75;;;1.40;;
51660;SDS011;37741;49.748;8.490;2022-11-04T14:06:17;5.30;;;1.40;;
51660;SDS011;37741;49.748;8.490;2022-11-04T14:19:44;5.07;;;1.35;;
51660;SDS011;37741;49.748;8.490;2022-11-04T14:22:15;3.83;;;1.42;;
51660;SDS011;37741;49.748;8.490;2022-11-04T14:24:41;2.70;;;1.20;;
51660;SDS011;37741;49.748;8.490;2022-11-04T14:34:07;5.18;;;2.35;;
51660;SDS011;37741;49.748;8.490;2022-11-04T14:36:55;5.05;;;2.05;;
51660;SDS011;37741;49.748;8.490;2022-11-04T14:39:27;4.07;;;1.67;;
51660;SDS011;37741;49.748;8.490;2022-11-04T14:41:59;4.10;;;1.52;;
51660;SDS011;37741;49.748;8.490;2022-11-04T14:44:37;3.22;;;1.45;;
51660;SDS011;37741;49.748;8.490;2022-11-04T14:50:31;2.88;;;1.30;;
51660;SDS011;37741;49.748;8.490;2022-11-04T14:56:24;3.67;;;1.25;;
51660;SDS011;37741;49.748;8.490;2022-11-04T15:02:30;4.18;;;1.27;;
51660;SDS011;37741;49.748;8.490;2022-11-04T15:04:59;3.28;;;1.10;;
51660;SDS011;37741;49.748;8.490;2022-11-04T15:07:33;5.82;;;1.10;;
51660;SDS011;37741;49.748;8.490;2022-11-04T15:13:47;3.65;;;1.20;;
51660;SDS011;37741;49.748;8.490;2022-11-04T15:19:36;4.30;;;1.27;;
51660;SDS011;37741;49.748;8.490;2022-11-04T15:24:53;3.35;;;1.30;;
51660;SDS011;37741;49.748;8.490;2022-11-04T15:27:24;3.83;;;1.40;;
51660;SDS011;37741;49.748;8.490;2022-11-04T15:35:31;4.97;;;1.55;;
51660;SDS011;37741;49.748;8.490;2022-11-04T15:37:58;2.88;;;1.17;;
51660;SDS011;37741;49.748;8.490;2022-11-04T15:40:26;3.97;;;1.20;;
51660;SDS011;37741;49.748;8.490;2022-11-04T15:42:53;4.55;;;2.08;;
51660;SDS011;37741;49.748;8.490;2022-11-04T15:45:38;3.15;;;1.15;;
51660;SDS011;37741;49.748;8.490;2022-11-04T15:53:49;1.83;;;0.90;;
51660;SDS011;37741;49.748;8.490;2022-11-04T15:56:28;6.32;;;1.65;;
51660;SDS011;37741;49.748;8.490;2022-11-04T15:58:57;3.55;;;1.17;;
51660;SDS011;37741;49.748;8.490;2022-11-04T16:01:25;3.15;;;1.13;;
51660;SDS011;37741;49.748;8.490;2022-11-04T16:03:53;3.33;;;1.35;;
51660;SDS011;37741;49.748;8.490;2022-11-04T16:06:31;1.73;;;0.80;;
51660;SDS011;37741;49.748;8.490;2022-11-04T16:09:00;3.58;;;1.27;;
51660;SDS011;37741;49.748;8.490;2022-11-04T16:11:38;3.50;;;1.20;;
51660;SDS011;37741;49.748;8.490;2022-11-04T16:14:17;3.90;;;1.50;;
51660;SDS011;37741;49.748;8.490;2022-11-04T16:16:51;3.00;;;1.10;;
51660;SDS011;37741;49.748;8.490;2022-11-04T16:19:21;4.32;;;1.50;;
51660;SDS011;37741;49.748;8.490;2022-11-04T16:22:52;3.67;;;1.30;;
51660;SDS011;37741;49.748;8.490;2022-11-04T16:24:53;2.58;;;1.17;;
51660;SDS011;37741;49.748;8.490;2022-11-04T16:27:20;2.00;;;1.20;;
51660;SDS011;37741;49.748;8.490;2022-11-04T16:29:51;3.55;;;1.60;;
51660;SDS011;37741;49.748;8.490;2022-11-04T16:32:25;3.42;;;1.60;;
51660;SDS011;37741;49.748;8.490;2022-11-04T16:34:52;2.72;;;1.38;;
51660;SDS011;37741;49.748;8.490;2022-11-04T16:37:21;3.78;;;1.45;;
51660;SDS011;37741;49.748;8.490;2022-11-04T16:39:46;3.20;;;1.13;;
51660;SDS011;37741;49.748;8.490;2022-11-04T16:42:14;2.83;;;1.15;;
51660;SDS011;37741;49.748;8.490;2022-11-04T16:44:45;3.10;;;1.33;;
51660;SDS011;37741;49.748;8.490;2022-11-04T16:47:12;1.85;;;0.88;;
51660;SDS011;37741;49.748;8.490;2022-11-04T16:49:38;3.70;;;1.63;;
51660;SDS011;37741;49.748;8.490;2022-11-04T16:52:04;4.13;;;1.63;;
51660;SDS011;37741;49.748;8.490;2022-11-04T16:54:37;4.15;;;1.70;;
51660;SDS011;37741;49.748;8.490;2022-11-04T16:57:02;2.92;;;1.25;;
51660;SDS011;37741;49.748;8.490;2022-11-04T16:59:30;3.25;;;1.00;;
51660;SDS011;37741;49.748;8.490;2022-11-04T17:01:56;3.03;;;1.20;;
51660;SDS011;37741;49.748;8.490;2022-11-04T17:04:22;2.20;;;1.13;;
51660;SDS011;37741;49.748;8.490;2022-11-04T17:06:50;4.13;;;1.15;;
51660;SDS011;37741;49.748;8.490;2022-11-04T17:09:18;3.22;;;1.60;;
51660;SDS011;37741;49.748;8.490;2022-11-04T17:11:45;2.30;;;1.00;;
51660;SDS011;37741;49.748;8.490;2022-11-04T17:14:11;3.60;;;1.15;;
51660;SDS011;37741;49.748;8.490;2022-11-04T17:16:37;2.63;;;1.10;;
51660;SDS011;37741;49.748;8.490;2022-11-04T17:19:02;3.13;;;1.33;;
51660;SDS011;37741;49.748;8.490;2022-11-04T17:21:28;3.92;;;2.08;;
51660;SDS011;37741;49.748;8.490;2022-11-04T17:23:54;3.35;;;1.52;;
51660;SDS011;37741;49.748;8.490;2022-11-04T17:26:20;3.92;;;1.42;;
51660;SDS011;37741;49.748;8.490;2022-11-04T17:28:48;3.47;;;1.65;;
51660;SDS011;37741;49.748;8.490;2022-11-04T17:31:18;2.83;;;1.25;;
51660;SDS011;37741;49.748;8.490;2022-11-04T17:33:46;3.33;;;1.60;;
51660;SDS011;37741;49.748;8.490;2022-11-04T17:36:16;5.45;;;1.73;;
51660;SDS011;37741;49.748;8.490;2022-11-04T17:38:43;3.90;;;1.52;;
51660;SDS011;37741;49.748;8.490;2022-11-04T17:41:22;2.55;;;1.35;;
51660;SDS011;37741;49.748;8.490;2022-11-04T17:44:07;2.78;;;1.55;;
51660;SDS011;37741;49.748;8.490;2022-11-04T17:46:36;3.55;;;1.83;;
51660;SDS011;37741;49.748;8.490;2022-11-04T17:51:35;4.97;;;2.38;;
51660;SDS011;37741;49.748;8.490;2022-11-04T17:54:03;3.08;;;1.77;;
51660;SDS011;37741;49.748;8.490;2022-11-04T17:56:30;3.85;;;2.60;;
51660;SDS011;37741;49.748;8.490;2022-11-04T17:58:57;4.13;;;2.20;;
51660;SDS011;37741;49.748;8.490;2022-11-04T18:01:25;3.65;;;1.92;;
51660;SDS011;37741;49.748;8.490;2022-11-04T18:04:00;5.93;;;2.78;;
51660;SDS011;37741;49.748;8.490;2022-11-04T18:06:45;3.78;;;2.22;;
51660;SDS011;37741;49.748;8.490;2022-11-04T18:09:11;4.63;;;2.55;;
51660;SDS011;37741;49.748;8.490;2022-11-04T18:11:38;4.85;;;2.33;;
51660;SDS011;37741;49.748;8.490;2022-11-04T18:14:28;4.32;;;2.03;;
51660;SDS011;37741;49.748;8.490;2022-11-04T18:17:00;5.20;;;2.58;;
51660;SDS011;37741;49.748;8.490;2022-11-04T18:19:31;3.97;;;2.13;;
51660;SDS011;37741;49.748;8.490;2022-11-04T18:22:00;3.60;;;2.55;;
51660;SDS011;37741;49.748;8.490;2022-11-04T18:24:27;4.95;;;2.50;;
51660;SDS011;37741;49.748;8.490;2022-11-04T18:26:56;5.30;;;3.03;;
51660;SDS011;37741;49.748;8.490;2022-11-04T18:29:23;4.72;;;2.30;;
51660;SDS011;37741;49.748;8.490;2022-11-04T18:31:48;8.95;;;2.55;;
51660;SDS011;37741;49.748;8.490;2022-11-04T18:34:18;8.60;;;2.70;;
51660;SDS011;37741;49.748;8.490;2022-11-04T18:36:47;5.95;;;2.80;;
51660;SDS011;37741;49.748;8.490;2022-11-04T18:39:32;6.47;;;3.13;;
51660;SDS011;37741;49.748;8.490;2022-11-04T18:44:46;5.28;;;2.45;;
51660;SDS011;37741;49.748;8.490;2022-11-04T18:47:15;7.65;;;2.95;;
51660;SDS011;37741;49.748;8.490;2022-11-04T18:49:45;4.90;;;2.85;;
51660;SDS011;37741;49.748;8.490;2022-11-04T18:52:16;4.43;;;2.22;;
51660;SDS011;37741;49.748;8.490;2022-11-04T18:54:43;4.85;;;2.83;;
51660;SDS011;37741;49.748;8.490;2022-11-04T18:57:08;5.30;;;2.85;;
51660;SDS011;37741;49.748;8.490;2022-11-04T18:59:35;6.72;;;4.03;;
51660;SDS011;37741;49.748;8.490;2022-11-04T19:02:02;4.65;;;2.65;;
51660;SDS011;37741;49.748;8.490;2022-11-04T19:04:29;8.68;;;3.40;;
51660;SDS011;37741;49.748;8.490;2022-11-04T19:06:55;6.35;;;2.75;;
51660;SDS011;37741;49.748;8.490;2022-11-04T19:09:21;5.78;;;2.70;;
51660;SDS011;37741;49.748;8.490;2022-11-04T19:11:46;3.95;;;2.78;;
51660;SDS011;37741;49.748;8.490;2022-11-04T19:14:13;4.93;;;2.78;;
51660;SDS011;37741;49.748;8.490;2022-11-04T19:16:42;4.32;;;2.85;;
51660;SDS011;37741;49.748;8.490;2022-11-04T19:19:09;4.00;;;2.83;;
51660;SDS011;37741;49.748;8.490;2022-11-04T19:21:37;4.80;;;3.10;;
51660;SDS011;37741;49.748;8.490;2022-11-04T19:24:04;4.93;;;2.92;;
51660;SDS011;37741;49.748;8.490;2022-11-04T19:26:32;5.18;;;3.28;;
51660;SDS011;37741;49.748;8.490;2022-11-04T19:28:59;5.25;;;3.35;;
51660;SDS011;37741;49.748;8.490;2022-11-04T19:31:28;4.72;;;2.95;;
51660;SDS011;37741;49.748;8.490;2022-11-04T19:33:56;5.22;;;3.40;;
51660;SDS011;37741;49.748;8.490;2022-11-04T19:36:25;5.38;;;2.90;;
51660;SDS011;37741;49.748;8.490;2022-11-04T19:38:55;5.75;;;3.67;;
51660;SDS011;37741;49.748;8.490;2022-11-04T19:41:31;4.53;;;3.40;;
51660;SDS011;37741;49.748;8.490;2022-11-04T19:44:16;5.18;;;3.28;;
51660;SDS011;37741;49.748;8.490;2022-11-04T19:46:42;4.32;;;2.83;;
51660;SDS011;37741;49.748;8.490;2022-11-04T19:49:18;4.57;;;3.25;;
51660;SDS011;37741;49.748;8.490;2022-11-04T19:51:50;7.60;;;3.70;;
51660;SDS011;37741;49.748;8.490;2022-11-04T19:54:20;5.70;;;2.90;;
51660;SDS011;37741;49.748;8.490;2022-11-04T19:56:47;5.60;;;3.20;;
51660;SDS011;37741;49.748;8.490;2022-11-04T19:59:16;4.45;;;2.65;;
51660;SDS011;37741;49.748;8.490;2022-11-04T20:01:43;5.18;;;3.10;;
51660;SDS011;37741;49.748;8.490;2022-11-04T20:07:31;5.68;;;2.88;;
51660;SDS011;37741;49.748;8.490;2022-11-04T20:09:57;4.63;;;2.60;;
51660;SDS011;37741;49.748;8.490;2022-11-04T20:12:23;4.80;;;3.00;;
51660;SDS011;37741;49.748;8.490;2022-11-04T20:15:13;6.13;;;3.30;;
51660;SDS011;37741;49.748;8.490;2022-11-04T20:27:38;5.22;;;2.70;;
51660;SDS011;37741;49.748;8.490;2022-11-04T20:30:04;4.85;;;2.60;;
51660;SDS011;37741;49.748;8.490;2022-11-04T20:32:34;5.07;;;2.90;;
51660;SDS011;37741;49.748;8.490;2022-11-04T20:34:59;4.03;;;2.50;;
51660;SDS011;37741;49.748;8.490;2022-11-04T20:37:29;4.50;;;2.45;;
51660;SDS011;37741;49.748;8.490;2022-11-04T20:40:05;4.20;;;2.78;;
51660;SDS011;37741;49.748;8.490;2022-11-04T20:45:54;5.40;;;2.60;;
51660;SDS011;37741;49.748;8.490;2022-11-04T20:48:23;4.72;;;2.88;;
51660;SDS011;37741;49.748;8.490;2022-11-04T20:51:03;4.03;;;2.75;;
51660;SDS011;37741;49.748;8.490;2022-11-04T20:53:49;6.47;;;3.53;;
51660;SDS011;37741;49.748;8.490;2022-11-04T20:56:30;3.85;;;2.53;;
51660;SDS011;37741;49.748;8.490;2022-11-04T20:59:01;3.47;;;2.38;;
51660;SDS011;37741;49.748;8.490;2022-11-04T21:01:46;4.53;;;2.92;;
51660;SDS011;37741;49.748;8.490;2022-11-04T21:04:18;5.18;;;3.22;;
51660;SDS011;37741;49.748;8.490;2022-11-04T21:06:51;4.00;;;3.00;;
51660;SDS011;37741;49.748;8.490;2022-11-04T21:09:17;4.57;;;2.83;;
51660;SDS011;37741;49.748;8.490;2022-11-04T21:11:46;4.57;;;2.80;;
51660;SDS011;37741;49.748;8.490;2022-11-04T21:14:16;4.95;;;2.60;;
51660;SDS011;37741;49.748;8.490;2022-11-04T21:16:43;5.70;;;2.63;;
51660;SDS011;37741;49.748;8.490;2022-11-04T21:19:10;4.28;;;2.55;;
51660;SDS011;37741;49.748;8.490;2022-11-04T21:21:38;5.22;;;2.17;;
51660;SDS011;37741;49.748;8.490;2022-11-04T21:24:05;3.60;;;2.45;;
51660;SDS011;37741;49.748;8.490;2022-11-04T21:26:31;5.32;;;3.28;;
51660;SDS011;37741;49.748;8.490;2022-11-04T21:28:59;4.35;;;2.63;;
51660;SDS011;37741;49.748;8.490;2022-11-04T21:31:29;5.57;;;3.15;;
51660;SDS011;37741;49.748;8.490;2022-11-04T21:33:55;5.10;;;3.83;;
51660;SDS011;37741;49.748;8.490;2022-11-04T21:36:21;5.22;;;2.92;;
51660;SDS011;37741;49.748;8.490;2022-11-04T21:38:47;3.65;;;2.58;;
51660;SDS011;37741;49.748;8.490;2022-11-04T21:44:11;5.63;;;3.25;;
51660;SDS011;37741;49.748;8.490;2022-11-04T21:46:40;5.95;;;3.42;;
51660;SDS011;37741;49.748;8.490;2022-11-04T21:49:07;4.05;;;3.22;;
51660;SDS011;37741;49.748;8.490;2022-11-04T21:51:34;4.22;;;2.80;;
51660;SDS011;37741;49.748;8.490;2022-11-04T21:54:02;4.80;;;3.33;;
51660;SDS011;37741;49.748;8.490;2022-11-04T21:56:29;6.13;;;3.13;;
51660;SDS011;37741;49.748;8.490;2022-11-04T21:58:57;4.15;;;2.92;;
51660;SDS011;37741;49.748;8.490;2022-11-04T22:01:24;5.07;;;3.22;;
51660;SDS011;37741;49.748;8.490;2022-11-04T22:03:52;6.88;;;3.53;;
51660;SDS011;37741;49.748;8.490;2022-11-04T22:06:19;7.05;;;3.65;;
51660;SDS011;37741;49.748;8.490;2022-11-04T22:08:46;7.45;;;3.67;;
51660;SDS011;37741;49.748;8.490;2022-11-04T22:11:17;5.28;;;3.63;;
51660;SDS011;37741;49.748;8.490;2022-11-04T22:13:44;8.40;;;4.05;;
51660;SDS011;37741;49.748;8.490;2022-11-04T22:16:17;6.78;;;4.05;;
51660;SDS011;37741;49.748;8.490;2022-11-04T22:18:44;6.60;;;4.05;;
51660;SDS011;37741;49.748;8.490;2022-11-04T22:21:13;5.43;;;3.70;;
51660;SDS011;37741;49.748;8.490;2022-11-04T22:23:41;5.80;;;3.92;;
51660;SDS011;37741;49.748;8.490;2022-11-04T22:26:09;7.40;;;4.20;;
51660;SDS011;37741;49.748;8.490;2022-11-04T22:28:37;6.70;;;4.32;;
51660;SDS011;37741;49.748;8.490;2022-11-04T22:31:13;5.97;;;4.07;;
51660;SDS011;37741;49.748;8.490;2022-11-04T22:33:44;7.28;;;4.50;;
51660;SDS011;37741;49.748;8.490;2022-11-04T22:36:10;9.48;;;5.20;;
51660;SDS011;37741;49.748;8.490;2022-11-04T22:38:37;5.85;;;3.90;;
51660;SDS011;37741;49.748;8.490;2022-11-04T22:41:04;5.93;;;4.30;;
51660;SDS011;37741;49.748;8.490;2022-11-04T22:43:31;6.60;;;4.60;;
51660;SDS011;37741;49.748;8.490;2022-11-04T22:45:57;6.72;;;3.85;;
51660;SDS011;37741;49.748;8.490;2022-11-04T22:48:26;8.10;;;3.75;;
51660;SDS011;37741;49.748;8.490;2022-11-04T22:50:53;5.93;;;4.43;;
51660;SDS011;37741;49.748;8.490;2022-11-04T22:53:20;6.50;;;4.03;;
51660;SDS011;37741;49.748;8.490;2022-11-04T22:55:46;5.93;;;3.85;;
51660;SDS011;37741;49.748;8.490;2022-11-04T22:58:11;6.13;;;3.83;;
51660;SDS011;37741;49.748;8.490;2022-11-04T23:00:37;6.10;;;4.07;;
51660;SDS011;37741;49.748;8.490;2022-11-04T23:03:03;4.47;;;3.58;;
51660;SDS011;37741;49.748;8.490;2022-11-04T23:05:31;6.20;;;3.83;;
51660;SDS011;37741;49.748;8.490;2022-11-04T23:07:58;8.00;;;3.50;;
51660;SDS011;37741;49.748;8.490;2022-11-04T23:10:25;5.78;;;3.40;;
51660;SDS011;37741;49.748;8.490;2022-11-04T23:13:10;5.07;;;3.45;;
51660;SDS011;37741;49.748;8.490;2022-11-04T23:15:54;5.38;;;4.00;;
51660;SDS011;37741;49.748;8.490;2022-11-04T23:18:38;6.60;;;4.10;;
51660;SDS011;37741;49.748;8.490;2022-11-04T23:21:07;6.20;;;3.55;;
51660;SDS011;37741;49.748;8.490;2022-11-04T23:23:53;5.10;;;3.15;;
51660;SDS011;37741;49.748;8.490;2022-11-04T23:26:37;4.60;;;3.55;;
51660;SDS011;37741;49.748;8.490;2022-11-04T23:29:03;4.93;;;3.13;;
51660;SDS011;37741;49.748;8.490;2022-11-04T23:31:47;5.13;;;3.80;;
51660;SDS011;37741;49.748;8.490;2022-11-04T23:34:12;4.50;;;3.28;;
51660;SDS011;37741;49.748;8.490;2022-11-04T23:36:56;6.95;;;3.47;;
51660;SDS011;37741;49.748;8.490;2022-11-04T23:39:38;6.07;;;3.30;;
51660;SDS011;37741;49.748;8.490;2022-11-04T23:42:10;5.53;;;3.35;;
51660;SDS011;37741;49.748;8.490;2022-11-04T23:44:40;4.53;;;3.00;;
51660;SDS011;37741;49.748;8.490;2022-11-04T23:47:36;4.95;;;3.30;;
51660;SDS011;37741;49.748;8.490;2022-11-04T23:50:22;4.65;;;3.47;;
51660;SDS011;37741;49.748;8.490;2022-11-04T23:53:09;5.45;;;3.63;;
51660;SDS011;37741;49.748;8.490;2022-11-04T23:55:56;6.28;;;3.65;;
51660;SDS011;37741;49.748;8.490;2022-11-04T23:58:40;5.60;;;3.28;;
